Time,TemperatureF,DewpointF,PressureIn,WindDirection,WindDirectionDegrees,WindSpeedMPH,WindSpeedGustMPH,Humidity,HourlyPrecipIn,Conditions,Clouds,dailyrainin,SoftwareType,DateUTC
2013-05-21 00:01:00,46.8,39.3,27.38,ENE,68,0.0,0.4,75,0.00,,,0.00,WUHU216HW,2013-05-21 07:01:00,
2013-05-21 00:06:00,46.6,39.2,27.38,ENE,68,0.0,0.4,75,0.00,,,0.00,WUHU216HW,2013-05-21 07:06:00,
2013-05-21 00:11:00,46.4,39.0,27.38,WSW,248,0.0,0.2,75,0.00,,,0.00,WUHU216HW,2013-05-21 07:11:00,
2013-05-21 00:16:00,46.4,39.0,27.37,WSW,248,0.0,0.0,75,0.00,,,0.00,WUHU216HW,2013-05-21 07:16:00,
2013-05-21 00:21:00,46.1,38.6,27.37,WSW,248,0.0,0.0,75,0.00,,,0.00,WUHU216HW,2013-05-21 07:21:00,
2013-05-21 00:26:00,46.1,38.6,27.37,North,0,0.0,0.0,75,0.00,,,0.00,WUHU216HW,2013-05-21 07:26:00,
2013-05-21 00:31:00,45.7,38.3,27.37,NE,45,0.0,0.2,75,0.00,,,0.00,WUHU216HW,2013-05-21 07:31:00,
2013-05-21 00:36:00,45.7,38.3,27.36,NE,45,0.0,0.2,75,0.00,,,0.00,WUHU216HW,2013-05-21 07:36:00,
2013-05-21 00:41:00,45.7,38.6,27.37,NE,45,0.0,0.0,76,0.00,,,0.00,WUHU216HW,2013-05-21 07:41:00,
2013-05-21 00:46:00,45.5,38.4,27.36,NE,45,0.0,0.2,76,0.00,,,0.00,WUHU216HW,2013-05-21 07:46:00,
2013-05-21 00:51:00,45.5,38.8,27.36,NE,45,0.0,0.2,77,0.00,,,0.00,WUHU216HW,2013-05-21 07:51:00,
2013-05-21 00:56:00,45.4,38.3,27.36,NE,45,0.0,0.0,76,0.00,,,0.00,WUHU216HW,2013-05-21 07:56:00,
2013-05-21 01:01:00,45.4,38.3,27.36,NE,45,0.0,0.0,76,0.00,,,0.00,WUHU216HW,2013-05-21 08:01:00,
2013-05-21 01:06:00,45.2,38.1,27.35,NE,45,0.4,0.4,76,0.00,,,0.00,WUHU216HW,2013-05-21 08:06:00,
2013-05-21 01:11:00,45.0,37.9,27.35,NE,45,0.0,0.4,76,0.00,,,0.00,WUHU216HW,2013-05-21 08:11:00,
2013-05-21 01:16:00,44.8,38.1,27.35,ENE,68,0.4,0.4,77,0.00,,,0.00,WUHU216HW,2013-05-21 08:16:00,
2013-05-21 01:21:00,44.6,37.9,27.35,ENE,68,0.0,0.7,77,0.00,,,0.00,WUHU216HW,2013-05-21 08:21:00,
2013-05-21 01:26:00,44.3,37.5,27.35,ENE,68,0.2,0.7,77,0.00,,,0.00,WUHU216HW,2013-05-21 08:26:00,
2013-05-21 01:31:00,44.3,37.8,27.34,ENE,68,0.0,0.4,78,0.00,,,0.00,WUHU216HW,2013-05-21 08:31:00,
2013-05-21 01:36:00,44.3,38.2,27.34,NE,45,0.0,0.4,79,0.00,,,0.00,WUHU216HW,2013-05-21 08:36:00,
2013-05-21 01:41:00,44.3,38.2,27.34,NE,45,0.0,0.4,79,0.00,,,0.00,WUHU216HW,2013-05-21 08:41:00,
2013-05-21 01:46:00,44.3,38.8,27.34,NE,45,0.0,0.9,81,0.00,,,0.00,WUHU216HW,2013-05-21 08:46:00,
2013-05-21 01:51:00,44.3,38.5,27.34,ESE,113,0.0,0.9,80,0.00,,,0.00,WUHU216HW,2013-05-21 08:51:00,
2013-05-21 01:56:00,44.5,39.3,27.33,NNE,23,1.1,1.1,82,0.00,,,0.00,WUHU216HW,2013-05-21 08:56:00,
2013-05-21 02:01:00,45.0,40.1,27.33,NNE,23,0.2,1.3,83,0.00,,,0.00,WUHU216HW,2013-05-21 09:01:00,
2013-05-21 02:06:00,45.5,40.7,27.33,NNE,23,0.4,1.3,83,0.00,,,0.00,WUHU216HW,2013-05-21 09:06:00,
2013-05-21 02:11:00,46.1,41.2,27.33,NE,45,0.0,0.9,83,0.00,,,0.00,WUHU216HW,2013-05-21 09:11:00,
2013-05-21 02:16:00,46.4,41.6,27.32,NE,45,1.1,1.3,83,0.00,,,0.00,WUHU216HW,2013-05-21 09:16:00,
2013-05-21 02:21:00,47.0,42.1,27.32,NE,45,0.0,1.3,83,0.00,,,0.00,WUHU216HW,2013-05-21 09:21:00,
2013-05-21 02:26:00,47.5,42.6,27.32,NE,45,0.0,1.1,83,0.00,,,0.00,WUHU216HW,2013-05-21 09:26:00,
2013-05-21 02:31:00,47.7,42.5,27.32,NE,45,0.0,0.9,82,0.00,,,0.00,WUHU216HW,2013-05-21 09:31:00,
2013-05-21 02:36:00,47.9,42.7,27.31,NE,45,0.0,0.4,82,0.00,,,0.00,WUHU216HW,2013-05-21 09:36:00,
2013-05-21 02:41:00,48.2,42.9,27.31,NW,315,0.2,0.4,82,0.00,,,0.00,WUHU216HW,2013-05-21 09:41:00,
2013-05-21 02:46:00,48.4,43.1,27.31,NNE,23,0.0,0.2,82,0.00,,,0.00,WUHU216HW,2013-05-21 09:46:00,
2013-05-21 02:51:00,48.8,43.5,27.31,SSW,203,0.9,0.9,82,0.00,,,0.00,WUHU216HW,2013-05-21 09:51:00,
2013-05-21 02:56:00,49.0,43.4,27.30,NE,45,0.0,0.9,81,0.00,,,0.00,WUHU216HW,2013-05-21 09:56:00,
2013-05-21 03:01:00,49.0,43.0,27.30,ESE,113,0.0,0.9,80,0.00,,,0.00,WUHU216HW,2013-05-21 10:01:00,
2013-05-21 03:06:00,48.8,42.8,27.30,ENE,68,0.0,0.2,80,0.00,,,0.00,WUHU216HW,2013-05-21 10:06:00,
2013-05-21 03:11:00,49.0,43.4,27.30,NNE,23,0.4,0.9,81,0.00,,,0.00,WUHU216HW,2013-05-21 10:11:00,
2013-05-21 03:16:00,49.1,43.2,27.29,NE,45,0.0,0.9,80,0.00,,,0.00,WUHU216HW,2013-05-21 10:16:00,
2013-05-21 03:21:00,49.3,43.4,27.29,ENE,68,0.0,0.9,80,0.00,,,0.00,WUHU216HW,2013-05-21 10:21:00,
2013-05-21 03:26:00,49.3,43.4,27.29,NE,45,0.0,0.9,80,0.00,,,0.00,WUHU216HW,2013-05-21 10:26:00,
2013-05-21 03:31:00,49.3,43.4,27.29,SSW,203,0.0,0.4,80,0.00,,,0.00,WUHU216HW,2013-05-21 10:31:00,
2013-05-21 03:37:00,49.3,43.4,27.29,ESE,113,0.7,1.3,80,0.00,,,0.00,WUHU216HW,2013-05-21 10:37:00,
2013-05-21 03:42:00,50.0,43.7,27.28,ENE,68,0.4,1.3,79,0.00,,,0.00,WUHU216HW,2013-05-21 10:42:00,
2013-05-21 03:47:00,50.6,43.9,27.28,NE,45,0.4,1.8,78,0.00,,,0.00,WUHU216HW,2013-05-21 10:47:00,
2013-05-21 03:52:00,50.9,44.0,27.28,SW,225,0.4,1.8,77,0.00,,,0.00,WUHU216HW,2013-05-21 10:52:00,
2013-05-21 03:57:00,51.1,43.8,27.28,ENE,68,0.0,0.9,76,0.00,,,0.00,WUHU216HW,2013-05-21 10:57:00,
2013-05-21 04:02:00,51.3,44.0,27.28,NE,45,0.0,0.9,76,0.00,,,0.00,WUHU216HW,2013-05-21 11:02:00,
2013-05-21 04:07:00,51.5,43.8,27.27,NE,45,0.0,0.7,75,0.00,,,0.00,WUHU216HW,2013-05-21 11:07:00,
2013-05-21 04:12:00,51.3,43.7,27.27,NE,45,0.4,0.7,75,0.00,,,0.00,WUHU216HW,2013-05-21 11:12:00,
2013-05-21 04:17:00,51.3,43.7,27.27,ENE,68,0.2,2.2,75,0.00,,,0.00,WUHU216HW,2013-05-21 11:17:00,
2013-05-21 04:22:00,51.3,43.7,27.27,SW,225,1.6,2.2,75,0.00,,,0.00,WUHU216HW,2013-05-21 11:22:00,
2013-05-21 04:27:00,51.1,43.5,27.26,SSE,158,0.0,1.6,75,0.00,,,0.00,WUHU216HW,2013-05-21 11:27:00,
2013-05-21 04:32:00,51.1,43.5,27.26,ESE,113,0.7,1.6,75,0.00,,,0.00,WUHU216HW,2013-05-21 11:32:00,
2013-05-21 04:37:00,51.3,43.7,27.26,SE,135,1.1,1.1,75,0.00,,,0.00,WUHU216HW,2013-05-21 11:37:00,
2013-05-21 04:42:00,51.5,43.5,27.26,ESE,113,0.0,2.5,74,0.00,,,0.00,WUHU216HW,2013-05-21 11:42:00,
2013-05-21 04:47:00,51.5,43.5,27.26,West,270,0.4,2.5,74,0.00,,,0.00,WUHU216HW,2013-05-21 11:47:00,
2013-05-21 04:52:00,51.5,43.5,27.25,NE,45,0.0,1.8,74,0.00,,,0.00,WUHU216HW,2013-05-21 11:52:00,
2013-05-21 04:57:00,51.5,43.5,27.25,North,0,1.6,3.6,74,0.00,,,0.00,WUHU216HW,2013-05-21 11:57:00,
2013-05-21 05:02:00,51.7,43.3,27.25,ESE,113,0.9,3.6,73,0.00,,,0.00,WUHU216HW,2013-05-21 12:02:00,
2013-05-21 05:07:00,52.0,43.7,27.25,ENE,68,0.4,2.5,73,0.00,,,0.00,WUHU216HW,2013-05-21 12:07:00,
2013-05-21 05:12:00,52.4,43.7,27.25,ENE,68,2.0,3.1,72,0.00,,,0.00,WUHU216HW,2013-05-21 12:12:00,
2013-05-21 05:17:00,52.7,43.7,27.24,SE,135,1.1,3.1,71,0.00,,,0.00,WUHU216HW,2013-05-21 12:17:00,
2013-05-21 05:22:00,52.7,44.0,27.24,SSE,158,1.1,2.5,72,0.00,,,0.00,WUHU216HW,2013-05-21 12:22:00,
2013-05-21 05:27:00,52.9,43.8,27.24,ESE,113,1.1,2.9,71,0.00,,,0.00,WUHU216HW,2013-05-21 12:27:00,
2013-05-21 05:32:00,52.9,43.5,27.24,ENE,68,2.5,2.9,70,0.00,,,0.00,WUHU216HW,2013-05-21 12:32:00,
2013-05-21 05:37:00,53.1,43.2,27.24,SE,135,4.0,4.0,69,0.00,,,0.00,WUHU216HW,2013-05-21 12:37:00,
2013-05-21 05:42:00,53.6,43.8,27.24,SSW,203,1.8,4.0,69,0.00,,,0.00,WUHU216HW,2013-05-21 12:42:00,
2013-05-21 05:47:00,53.8,43.5,27.24,ESE,113,1.1,4.0,68,0.00,,,0.00,WUHU216HW,2013-05-21 12:47:00,
2013-05-21 05:52:00,53.8,43.9,27.24,NE,45,2.9,3.8,69,0.00,,,0.00,WUHU216HW,2013-05-21 12:52:00,
2013-05-21 05:57:00,54.0,43.7,27.23,ENE,68,0.0,2.9,68,0.00,,,0.00,WUHU216HW,2013-05-21 12:57:00,
2013-05-21 06:02:00,54.0,43.7,27.23,NNE,23,0.9,2.9,68,0.00,,,0.00,WUHU216HW,2013-05-21 13:02:00,
2013-05-21 06:07:00,54.2,43.8,27.23,ESE,113,5.1,5.1,68,0.00,,,0.00,WUHU216HW,2013-05-21 13:07:00,
2013-05-21 06:12:00,54.2,43.5,27.23,SE,135,3.1,5.1,67,0.00,,,0.00,WUHU216HW,2013-05-21 13:12:00,
2013-05-21 06:17:00,54.4,43.7,27.23,ENE,68,0.4,5.1,67,0.00,,,0.00,WUHU216HW,2013-05-21 13:17:00,
2013-05-21 06:22:00,54.4,43.2,27.23,SSE,158,0.7,4.0,66,0.00,,,0.00,WUHU216HW,2013-05-21 13:22:00,
2013-05-21 06:27:00,54.7,43.6,27.23,SSE,158,1.1,4.0,66,0.00,,,0.00,WUHU216HW,2013-05-21 13:27:00,
2013-05-21 06:32:00,55.1,43.5,27.22,ESE,113,0.9,3.8,65,0.00,,,0.00,WUHU216HW,2013-05-21 13:32:00,
2013-05-21 06:37:00,55.3,43.7,27.22,East,90,1.1,4.0,65,0.00,,,0.00,WUHU216HW,2013-05-21 13:37:00,
2013-05-21 06:42:00,55.3,43.7,27.23,NNW,338,0.4,4.0,65,0.00,,,0.00,WUHU216HW,2013-05-21 13:42:00,
2013-05-21 06:47:00,55.3,44.1,27.23,ENE,68,0.4,2.5,66,0.00,,,0.00,WUHU216HW,2013-05-21 13:47:00,
2013-05-21 06:52:00,55.1,43.9,27.22,ENE,68,2.2,4.0,66,0.00,,,0.00,WUHU216HW,2013-05-21 13:52:00,
2013-05-21 06:57:00,55.4,44.3,27.22,SE,135,1.3,4.0,66,0.00,,,0.00,WUHU216HW,2013-05-21 13:57:00,
2013-05-21 07:02:00,55.8,43.7,27.22,SE,135,2.5,4.0,64,0.00,,,0.00,WUHU216HW,2013-05-21 14:02:00,
2013-05-21 07:07:00,56.2,44.1,27.22,ESE,113,2.5,4.7,64,0.00,,,0.00,WUHU216HW,2013-05-21 14:07:00,
2013-05-21 07:12:00,56.7,44.2,27.22,NE,45,4.7,4.7,63,0.00,,,0.00,WUHU216HW,2013-05-21 14:12:00,
2013-05-21 07:17:00,57.2,43.9,27.22,East,90,5.4,5.4,61,0.00,,,0.00,WUHU216HW,2013-05-21 14:17:00,
2013-05-21 07:22:00,57.8,44.8,27.22,South,180,0.4,5.4,62,0.00,,,0.00,WUHU216HW,2013-05-21 14:22:00,
2013-05-21 07:27:00,58.3,44.1,27.22,SE,135,4.0,4.7,59,0.00,,,0.00,WUHU216HW,2013-05-21 14:27:00,
2013-05-21 07:32:00,58.7,43.9,27.22,ENE,68,6.3,6.3,58,0.00,,,0.00,WUHU216HW,2013-05-21 14:32:00,
2013-05-21 07:37:00,59.0,45.2,27.22,SW,225,0.4,6.3,60,0.00,,,0.00,WUHU216HW,2013-05-21 14:37:00,
2013-05-21 07:42:00,59.4,44.7,27.22,SE,135,3.4,6.3,58,0.00,,,0.00,WUHU216HW,2013-05-21 14:42:00,
2013-05-21 07:47:00,59.8,45.5,27.21,ESE,113,1.1,4.0,59,0.00,,,0.00,WUHU216HW,2013-05-21 14:47:00,
2013-05-21 07:52:00,60.5,45.6,27.21,East,90,2.0,4.9,58,0.00,,,0.00,WUHU216HW,2013-05-21 14:52:00,
2013-05-21 07:57:00,61.6,45.7,27.21,SE,135,1.6,4.9,56,0.00,,,0.00,WUHU216HW,2013-05-21 14:57:00,
2013-05-21 08:02:00,62.8,45.8,27.21,ENE,68,2.9,4.0,54,0.00,,,0.00,WUHU216HW,2013-05-21 15:02:00,
2013-05-21 08:07:00,63.9,45.8,27.21,SE,135,0.7,4.7,52,0.00,,,0.00,WUHU216HW,2013-05-21 15:07:00,
2013-05-21 08:12:00,64.6,46.0,27.21,ESE,113,4.0,4.9,51,0.00,,,0.00,WUHU216HW,2013-05-21 15:12:00,
2013-05-21 08:17:00,65.2,44.9,27.20,ESE,113,4.0,6.9,48,0.00,,,0.00,WUHU216HW,2013-05-21 15:17:00,
2013-05-21 08:22:00,65.2,44.9,27.20,SSE,158,5.4,7.2,48,0.00,,,0.00,WUHU216HW,2013-05-21 15:22:00,
2013-05-21 08:27:00,64.8,45.7,27.20,ESE,113,0.4,7.2,50,0.00,,,0.00,WUHU216HW,2013-05-21 15:27:00,
2013-05-21 08:32:00,65.7,45.5,27.20,South,180,4.9,5.4,48,0.00,,,0.00,WUHU216HW,2013-05-21 15:32:00,
2013-05-21 08:37:00,66.2,46.0,27.20,SE,135,3.4,6.3,48,0.00,,,0.00,WUHU216HW,2013-05-21 15:37:00,
2013-05-21 08:42:00,67.0,46.6,27.20,SE,135,0.9,6.3,48,0.00,,,0.00,WUHU216HW,2013-05-21 15:42:00,
2013-05-21 08:47:00,67.7,46.1,27.19,East,90,0.9,4.9,46,0.00,,,0.00,WUHU216HW,2013-05-21 15:47:00,
2013-05-21 08:52:00,68.2,46.0,27.19,ESE,113,4.3,4.7,45,0.00,,,0.00,WUHU216HW,2013-05-21 15:52:00,
2013-05-21 08:57:00,68.4,46.2,27.19,SE,135,3.8,7.4,45,0.00,,,0.00,WUHU216HW,2013-05-21 15:57:00,
2013-05-21 09:02:00,68.4,46.2,27.19,SSE,158,2.2,7.4,45,0.00,,,0.00,WUHU216HW,2013-05-21 16:02:00,
2013-05-21 09:07:00,68.9,47.3,27.19,SSE,158,3.4,4.5,46,0.00,,,0.00,WUHU216HW,2013-05-21 16:07:00,
2013-05-21 09:12:00,68.9,46.6,27.18,SE,135,2.7,7.2,45,0.00,,,0.00,WUHU216HW,2013-05-21 16:12:00,
2013-05-21 09:17:00,68.9,47.3,27.18,North,0,1.1,7.2,46,0.00,,,0.00,WUHU216HW,2013-05-21 16:17:00,
2013-05-21 09:22:00,68.8,46.4,27.18,ESE,113,1.6,5.6,45,0.00,,,0.00,WUHU216HW,2013-05-21 16:22:00,
2013-05-21 09:27:00,68.4,46.2,27.18,ESE,113,3.4,4.0,45,0.00,,,0.00,WUHU216HW,2013-05-21 16:27:00,
2013-05-21 09:32:00,67.9,46.8,27.17,SE,135,2.2,4.7,47,0.00,,,0.00,WUHU216HW,2013-05-21 16:32:00,
2013-05-21 09:37:00,68.9,48.4,27.17,ENE,68,2.2,4.9,48,0.00,,,0.00,WUHU216HW,2013-05-21 16:37:00,
2013-05-21 09:42:00,69.5,47.7,27.17,SE,135,3.1,4.9,46,0.00,,,0.00,WUHU216HW,2013-05-21 16:42:00,
2013-05-21 09:47:00,70.2,48.3,27.17,ESE,113,3.1,4.7,46,0.00,,,0.00,WUHU216HW,2013-05-21 16:47:00,
2013-05-21 09:52:00,71.3,48.2,27.16,ESE,113,0.7,4.7,44,0.00,,,0.00,WUHU216HW,2013-05-21 16:52:00,
2013-05-21 09:57:00,72.0,48.8,27.16,SE,135,4.0,4.7,44,0.00,,,0.00,WUHU216HW,2013-05-21 16:57:00,
2013-05-21 10:02:00,72.2,48.3,27.16,South,180,3.6,4.7,43,0.00,,,0.00,WUHU216HW,2013-05-21 17:02:00,
2013-05-21 10:07:00,72.2,48.3,27.15,NNW,338,2.2,4.7,43,0.00,,,0.00,WUHU216HW,2013-05-21 17:07:00,
2013-05-21 10:12:00,73.1,46.6,27.16,ESE,113,4.0,4.7,39,0.00,,,0.00,WUHU216HW,2013-05-21 17:12:00,
2013-05-21 10:17:00,73.3,47.5,27.16,South,180,2.9,4.0,40,0.00,,,0.00,WUHU216HW,2013-05-21 17:17:00,
2013-05-21 10:22:00,73.6,46.4,27.16,SSE,158,3.1,3.8,38,0.00,,,0.00,WUHU216HW,2013-05-21 17:22:00,
2013-05-21 10:27:00,73.8,47.3,27.15,SSE,158,2.5,3.8,39,0.00,,,0.00,WUHU216HW,2013-05-21 17:27:00,
2013-05-21 10:32:00,73.8,46.5,27.15,South,180,2.2,6.5,38,0.00,,,0.00,WUHU216HW,2013-05-21 17:32:00,
2013-05-21 10:37:00,74.3,48.5,27.15,SSW,203,2.2,6.5,40,0.00,,,0.00,WUHU216HW,2013-05-21 17:37:00,
2013-05-21 10:42:00,74.3,47.8,27.15,SW,225,4.5,6.7,39,0.00,,,0.00,WUHU216HW,2013-05-21 17:42:00,
2013-05-21 10:47:00,74.5,48.7,27.15,SSW,203,2.5,6.7,40,0.00,,,0.00,WUHU216HW,2013-05-21 17:47:00,
2013-05-21 10:52:00,74.2,48.3,27.15,SSW,203,2.7,8.7,40,0.00,,,0.00,WUHU216HW,2013-05-21 17:52:00,
2013-05-21 10:57:00,74.3,47.8,27.14,South,180,2.5,8.7,39,0.00,,,0.00,WUHU216HW,2013-05-21 17:57:00,
2013-05-21 11:02:00,74.0,47.4,27.14,SSW,203,4.9,7.6,39,0.00,,,0.00,WUHU216HW,2013-05-21 18:02:00,
2013-05-21 11:07:00,73.8,49.2,27.14,SW,225,2.5,4.9,42,0.00,,,0.00,WUHU216HW,2013-05-21 18:07:00,
2013-05-21 11:12:00,74.5,49.3,27.14,SW,225,2.5,4.9,41,0.00,,,0.00,WUHU216HW,2013-05-21 18:12:00,
2013-05-21 11:17:00,74.9,49.6,27.14,SSW,203,2.5,7.8,41,0.00,,,0.00,WUHU216HW,2013-05-21 18:17:00,
2013-05-21 11:22:00,75.2,48.6,27.14,WSW,248,2.9,7.8,39,0.00,,,0.00,WUHU216HW,2013-05-21 18:22:00,
2013-05-21 11:27:00,74.3,47.8,27.14,SSW,203,3.6,5.6,39,0.00,,,0.00,WUHU216HW,2013-05-21 18:27:00,
2013-05-21 11:32:00,73.6,46.4,27.13,WSW,248,5.6,6.3,38,0.00,,,0.00,WUHU216HW,2013-05-21 18:32:00,
2013-05-21 11:37:00,72.9,47.3,27.13,SSW,203,1.3,6.3,40,0.00,,,0.00,WUHU216HW,2013-05-21 18:37:00,
2013-05-21 11:42:00,72.4,46.7,27.13,SSE,158,2.9,5.6,40,0.00,,,0.00,WUHU216HW,2013-05-21 18:42:00,
2013-05-21 11:47:00,71.6,46.1,27.13,SSW,203,3.8,4.9,40,0.00,,,0.00,WUHU216HW,2013-05-21 18:47:00,
2013-05-21 11:52:00,71.3,47.0,27.13,South,180,4.0,6.5,42,0.00,,,0.00,WUHU216HW,2013-05-21 18:52:00,
2013-05-21 11:57:00,70.6,48.7,27.13,SSW,203,2.9,6.5,46,0.00,,,0.00,WUHU216HW,2013-05-21 18:57:00,
2013-05-21 12:02:00,70.2,48.3,27.14,SW,225,5.8,7.2,46,0.00,,,0.00,WUHU216HW,2013-05-21 19:02:00,
2013-05-21 12:07:00,69.3,48.2,27.13,SW,225,3.4,7.2,47,0.00,,,0.00,WUHU216HW,2013-05-21 19:07:00,
2013-05-21 12:12:00,68.0,47.0,27.13,SW,225,3.4,6.3,47,0.00,,,0.00,WUHU216HW,2013-05-21 19:12:00,
2013-05-21 12:17:00,67.0,47.3,27.13,SW,225,4.3,5.6,49,0.00,,,0.00,WUHU216HW,2013-05-21 19:17:00,
2013-05-21 12:22:00,66.2,47.2,27.14,SW,225,4.0,6.3,50,0.00,,,0.00,WUHU216HW,2013-05-21 19:22:00,
2013-05-21 12:27:00,65.7,47.1,27.14,SW,225,4.0,6.3,51,0.00,,,0.00,WUHU216HW,2013-05-21 19:27:00,
2013-05-21 12:32:00,65.2,46.1,27.14,SSW,203,6.9,6.9,50,0.00,,,0.00,WUHU216HW,2013-05-21 19:32:00,
2013-05-21 12:37:00,64.4,46.4,27.14,SW,225,3.4,7.6,52,0.00,,,0.00,WUHU216HW,2013-05-21 19:37:00,
2013-05-21 12:42:00,64.3,45.7,27.14,SSW,203,3.6,7.6,51,0.00,,,0.00,WUHU216HW,2013-05-21 19:42:00,
2013-05-21 12:47:00,64.1,45.6,27.14,SW,225,4.3,5.4,51,0.00,,,0.00,WUHU216HW,2013-05-21 19:47:00,
2013-05-21 12:52:00,64.1,45.6,27.14,SW,225,5.4,7.8,51,0.00,,,0.00,WUHU216HW,2013-05-21 19:52:00,
2013-05-21 12:57:00,64.1,46.0,27.14,WSW,248,4.0,7.8,52,0.00,,,0.00,WUHU216HW,2013-05-21 19:57:00,
2013-05-21 13:02:00,64.4,46.4,27.14,SW,225,7.6,7.6,52,0.00,,,0.00,WUHU216HW,2013-05-21 20:02:00,
2013-05-21 13:07:00,65.5,46.4,27.14,South,180,4.0,7.6,50,0.00,,,0.00,WUHU216HW,2013-05-21 20:07:00,
2013-05-21 13:12:00,66.2,47.2,27.14,SW,225,2.5,7.6,50,0.00,,,0.00,WUHU216HW,2013-05-21 20:12:00,
2013-05-21 13:17:00,66.4,45.5,27.15,SW,225,6.0,6.9,47,0.00,,,0.00,WUHU216HW,2013-05-21 20:17:00,
2013-05-21 13:22:00,66.6,45.1,27.15,SW,225,4.5,8.5,46,0.00,,,0.00,WUHU216HW,2013-05-21 20:22:00,
2013-05-21 13:27:00,65.7,44.8,27.14,SW,225,5.4,8.5,47,0.00,,,0.00,WUHU216HW,2013-05-21 20:27:00,
2013-05-21 13:32:00,65.2,43.2,27.15,SSW,203,4.9,8.3,45,0.00,,,0.00,WUHU216HW,2013-05-21 20:32:00,
2013-05-21 13:37:00,64.8,43.4,27.16,SSW,203,3.1,8.3,46,0.00,,,0.00,WUHU216HW,2013-05-21 20:37:00,
2013-05-21 13:42:00,64.8,42.9,27.16,SW,225,3.4,6.3,45,0.00,,,0.00,WUHU216HW,2013-05-21 20:42:00,
2013-05-21 13:47:00,64.3,42.9,27.16,South,180,3.4,5.6,46,0.00,,,0.00,WUHU216HW,2013-05-21 20:47:00,
2013-05-21 13:52:00,64.1,43.9,27.15,SW,225,6.3,6.3,48,0.00,,,0.00,WUHU216HW,2013-05-21 20:52:00,
2013-05-21 13:57:00,64.8,44.0,27.16,SW,225,4.7,8.5,47,0.00,,,0.00,WUHU216HW,2013-05-21 20:57:00,
2013-05-21 14:02:00,65.3,44.5,27.16,WSW,248,4.7,8.5,47,0.00,,,0.00,WUHU216HW,2013-05-21 21:02:00,
2013-05-21 14:07:00,66.2,44.8,27.17,SW,225,5.4,7.8,46,0.00,,,0.00,WUHU216HW,2013-05-21 21:07:00,
2013-05-21 14:12:00,67.0,44.3,27.16,West,270,5.6,8.5,44,0.00,,,0.00,WUHU216HW,2013-05-21 21:12:00,
2013-05-21 14:17:00,67.7,44.9,27.17,SSW,203,2.5,8.5,44,0.00,,,0.00,WUHU216HW,2013-05-21 21:17:00,
2013-05-21 14:22:00,67.3,44.6,27.17,SW,225,5.4,7.8,44,0.00,,,0.00,WUHU216HW,2013-05-21 21:22:00,
2013-05-21 14:27:00,65.7,44.8,27.17,South,180,4.7,10.5,47,0.00,,,0.00,WUHU216HW,2013-05-21 21:27:00,
2013-05-21 14:32:00,64.6,45.0,27.18,South,180,9.2,10.5,49,0.00,,,0.00,WUHU216HW,2013-05-21 21:32:00,
2013-05-21 14:37:00,65.2,46.5,27.19,SW,225,14.3,14.3,51,0.00,,,0.00,WUHU216HW,2013-05-21 21:37:00,
2013-05-21 14:42:00,64.8,47.2,27.19,South,180,6.7,14.3,53,0.00,,,0.00,WUHU216HW,2013-05-21 21:42:00,
2013-05-21 14:47:00,63.7,47.2,27.20,South,180,9.2,14.3,55,0.00,,,0.00,WUHU216HW,2013-05-21 21:47:00,
2013-05-21 14:52:00,62.3,47.8,27.21,SSW,203,10.3,10.5,59,0.00,,,0.00,WUHU216HW,2013-05-21 21:52:00,
2013-05-21 14:57:00,60.5,47.4,27.21,SW,225,8.5,11.4,62,0.00,,,0.00,WUHU216HW,2013-05-21 21:57:00,
2013-05-21 15:02:00,58.7,46.9,27.21,West,270,7.6,15.0,65,0.00,,,0.00,WUHU216HW,2013-05-21 22:02:00,
2013-05-21 15:07:00,56.9,46.0,27.21,SW,225,8.5,15.7,67,0.00,,,0.00,WUHU216HW,2013-05-21 22:07:00,
2013-05-21 15:12:00,55.4,45.5,27.22,SW,225,7.6,15.7,69,0.00,,,0.00,WUHU216HW,2013-05-21 22:12:00,
2013-05-21 15:17:00,54.2,45.0,27.23,SSW,203,7.2,13.0,71,0.00,,,0.00,WUHU216HW,2013-05-21 22:17:00,
2013-05-21 15:22:00,53.3,44.5,27.24,WSW,248,4.0,10.5,72,0.00,,,0.00,WUHU216HW,2013-05-21 22:22:00,
2013-05-21 15:27:00,53.1,43.2,27.24,SW,225,6.3,11.9,69,0.00,,,0.00,WUHU216HW,2013-05-21 22:27:00,
2013-05-21 15:32:00,52.2,43.1,27.25,WSW,248,3.6,11.9,71,0.00,,,0.00,WUHU216HW,2013-05-21 22:32:00,
2013-05-21 15:37:00,51.8,42.5,27.25,West,270,9.2,10.3,70,0.00,,,0.00,WUHU216HW,2013-05-21 22:37:00,
2013-05-21 15:42:00,51.8,42.9,27.24,SSW,203,7.6,10.7,71,0.00,,,0.00,WUHU216HW,2013-05-21 22:42:00,
2013-05-21 15:47:00,52.0,43.0,27.23,SW,225,4.0,10.7,71,0.00,,,0.00,WUHU216HW,2013-05-21 22:47:00,
2013-05-21 15:52:00,51.8,42.0,27.24,SSW,203,4.0,8.5,69,0.00,,,0.00,WUHU216HW,2013-05-21 22:52:00,
2013-05-21 15:57:00,51.5,41.7,27.24,WSW,248,5.4,8.1,69,0.00,,,0.00,WUHU216HW,2013-05-21 22:57:00,
2013-05-21 16:02:00,51.7,41.5,27.24,SW,225,6.0,10.5,68,0.00,,,0.00,WUHU216HW,2013-05-21 23:02:00,
2013-05-21 16:07:00,51.1,41.8,27.25,SW,225,6.9,10.5,70,0.00,,,0.00,WUHU216HW,2013-05-21 23:07:00,
2013-05-21 16:12:00,51.3,42.3,27.25,SSW,203,3.8,8.9,71,0.00,,,0.00,WUHU216HW,2013-05-21 23:12:00,
2013-05-21 16:17:00,51.3,41.9,27.24,SSW,203,2.9,6.9,70,0.00,,,0.00,WUHU216HW,2013-05-21 23:17:00,
2013-05-21 16:22:00,51.1,41.8,27.24,SSW,203,4.7,6.3,70,0.00,,,0.00,WUHU216HW,2013-05-21 23:22:00,
2013-05-21 16:27:00,50.9,41.6,27.24,SW,225,4.0,6.9,70,0.00,,,0.00,WUHU216HW,2013-05-21 23:27:00,
2013-05-21 16:32:00,51.1,41.8,27.24,SW,225,4.3,7.8,70,0.00,,,0.00,WUHU216HW,2013-05-21 23:32:00,
2013-05-21 16:37:00,50.9,42.0,27.25,SE,135,1.8,7.8,71,0.00,,,0.00,WUHU216HW,2013-05-21 23:37:00,
2013-05-21 16:42:00,50.6,41.6,27.25,WSW,248,1.8,7.6,71,0.00,,,0.00,WUHU216HW,2013-05-21 23:42:00,
2013-05-21 16:47:00,50.4,41.4,27.25,WSW,248,2.2,7.6,71,0.00,,,0.00,WUHU216HW,2013-05-21 23:47:00,
2013-05-21 16:52:00,50.4,41.4,27.25,WSW,248,2.9,7.6,71,0.00,,,0.00,WUHU216HW,2013-05-21 23:52:00,
2013-05-21 16:57:00,50.0,41.4,27.25,SSW,203,6.7,7.6,72,0.00,,,0.00,WUHU216HW,2013-05-21 23:57:00,
2013-05-21 17:02:00,49.7,41.1,27.25,SW,225,4.3,7.2,72,0.00,,,0.00,WUHU216HW,2013-05-22 00:02:00,
2013-05-21 17:07:00,49.3,41.3,27.26,SSW,203,3.1,7.2,74,0.00,,,0.00,WUHU216HW,2013-05-22 00:07:00,
2013-05-21 17:12:00,49.1,41.1,27.27,SSW,203,1.6,5.8,74,0.00,,,0.00,WUHU216HW,2013-05-22 00:12:00,
2013-05-21 17:17:00,49.3,41.3,27.27,SW,225,1.8,3.4,74,0.00,,,0.00,WUHU216HW,2013-05-22 00:17:00,
2013-05-21 17:22:00,49.1,41.1,27.28,SW,225,3.6,3.6,74,0.00,,,0.00,WUHU216HW,2013-05-22 00:22:00,
2013-05-21 17:27:00,49.0,41.3,27.28,SW,225,2.0,4.3,75,0.00,,,0.00,WUHU216HW,2013-05-22 00:27:00,
2013-05-21 17:32:00,48.6,41.0,27.28,SSW,203,2.5,4.5,75,0.00,,,0.00,WUHU216HW,2013-05-22 00:32:00,
2013-05-21 17:37:00,48.4,41.1,27.29,SSW,203,4.7,5.1,76,0.00,,,0.00,WUHU216HW,2013-05-22 00:37:00,
2013-05-21 17:42:00,48.1,41.5,27.30,SSW,203,3.1,5.8,78,0.00,,,0.00,WUHU216HW,2013-05-22 00:42:00,
2013-05-21 17:47:00,47.5,40.6,27.30,SSW,203,7.8,7.8,77,0.00,,,0.00,WUHU216HW,2013-05-22 00:47:00,
2013-05-21 17:52:00,46.6,40.9,27.30,SW,225,3.4,8.1,80,0.01,,,0.00,WUHU216HW,2013-05-22 00:52:00,
2013-05-21 17:57:00,45.9,40.1,27.29,SW,225,1.6,8.1,80,0.01,,,0.00,WUHU216HW,2013-05-22 00:57:00,
2013-05-21 18:02:00,45.5,39.8,27.28,SW,225,0.4,5.8,80,0.02,,,0.02,WUHU216HW,2013-05-22 01:02:00,
2013-05-21 18:07:00,45.4,39.6,27.28,NE,45,0.0,2.2,80,0.03,,,0.02,WUHU216HW,2013-05-22 01:07:00,
2013-05-21 18:12:00,45.4,39.9,27.28,NE,45,1.1,1.1,81,0.04,,,0.04,WUHU216HW,2013-05-22 01:12:00,
2013-05-21 18:17:00,45.4,39.9,27.27,NE,45,0.0,1.3,81,0.04,,,0.04,WUHU216HW,2013-05-22 01:17:00,
2013-05-21 18:22:00,45.2,39.7,27.29,ESE,113,0.4,1.3,81,0.05,,,0.05,WUHU216HW,2013-05-22 01:22:00,
2013-05-21 18:27:00,45.0,39.5,27.29,ENE,68,0.2,1.1,81,0.06,,,0.06,WUHU216HW,2013-05-22 01:27:00,
2013-05-21 18:32:00,45.0,39.5,27.29,NE,45,0.9,0.9,81,0.08,,,0.08,WUHU216HW,2013-05-22 01:32:00,
2013-05-21 18:37:00,45.0,40.1,27.29,East,90,0.2,1.1,83,0.11,,,0.11,WUHU216HW,2013-05-22 01:37:00,
2013-05-21 18:42:00,44.8,40.3,27.30,SSW,203,0.7,1.1,84,0.13,,,0.13,WUHU216HW,2013-05-22 01:42:00,
2013-05-21 18:47:00,44.6,39.8,27.29,ESE,113,0.0,1.1,83,0.14,,,0.14,WUHU216HW,2013-05-22 01:47:00,
2013-05-21 18:52:00,44.6,40.4,27.28,North,0,1.1,1.1,85,0.14,,,0.15,WUHU216HW,2013-05-22 01:52:00,
2013-05-21 18:57:00,44.6,40.2,27.28,ENE,68,0.4,1.1,84,0.15,,,0.16,WUHU216HW,2013-05-22 01:57:00,
2013-05-21 19:02:00,44.6,40.4,27.27,NE,45,0.2,0.9,85,0.14,,,0.16,WUHU216HW,2013-05-22 02:02:00,
2013-05-21 19:07:00,44.6,40.4,27.27,SW,225,0.4,0.7,85,0.14,,,0.17,WUHU216HW,2013-05-22 02:07:00,
2013-05-21 19:12:00,44.5,40.2,27.26,ENE,68,0.4,1.3,85,0.13,,,0.17,WUHU216HW,2013-05-22 02:12:00,
2013-05-21 19:17:00,44.5,40.2,27.26,ENE,68,0.0,1.3,85,0.14,,,0.18,WUHU216HW,2013-05-22 02:17:00,
2013-05-21 19:22:00,44.5,40.2,27.25,NE,45,0.0,1.1,85,0.15,,,0.20,WUHU216HW,2013-05-22 02:22:00,
2013-05-21 19:27:00,44.3,40.7,27.25,ENE,68,0.9,2.5,87,0.15,,,0.20,WUHU216HW,2013-05-22 02:27:00,
2013-05-21 19:32:00,44.1,40.5,27.25,SSE,158,0.2,2.5,87,0.11,,,0.21,WUHU216HW,2013-05-22 02:32:00,
2013-05-21 19:37:00,43.9,40.6,27.26,ESE,113,0.7,1.3,88,0.09,,,0.21,WUHU216HW,2013-05-22 02:37:00,
2013-05-21 19:42:00,43.9,41.0,27.26,South,180,0.4,3.4,89,0.07,,,0.21,WUHU216HW,2013-05-22 02:42:00,
2013-05-21 19:47:00,43.7,40.4,27.27,SW,225,0.0,3.4,88,0.07,,,0.21,WUHU216HW,2013-05-22 02:47:00,
2013-05-21 19:52:00,43.7,40.4,27.26,ESE,113,0.0,1.8,88,0.06,,,0.22,WUHU216HW,2013-05-22 02:52:00,
2013-05-21 19:57:00,43.7,40.4,27.26,SE,135,0.4,0.4,88,0.06,,,0.22,WUHU216HW,2013-05-22 02:57:00,
2013-05-21 20:02:00,43.9,40.6,27.25,ESE,113,0.4,0.7,88,0.06,,,0.22,WUHU216HW,2013-05-22 03:02:00,
2013-05-21 20:07:00,43.9,40.6,27.25,ESE,113,0.0,1.1,88,0.05,,,0.22,WUHU216HW,2013-05-22 03:07:00,
2013-05-21 20:12:00,43.9,40.3,27.25,NNE,23,0.2,1.1,87,0.04,,,0.22,WUHU216HW,2013-05-22 03:12:00,
2013-05-21 20:17:00,43.9,40.3,27.25,SE,135,0.2,0.4,87,0.03,,,0.22,WUHU216HW,2013-05-22 03:17:00,
2013-05-21 20:22:00,43.9,40.3,27.26,NNE,23,0.0,0.4,87,0.02,,,0.22,WUHU216HW,2013-05-22 03:22:00,
2013-05-21 20:27:00,43.7,39.8,27.26,NNE,23,0.0,0.4,86,0.01,,,0.22,WUHU216HW,2013-05-22 03:27:00,
2013-05-21 20:32:00,43.6,39.6,27.26,NNE,23,0.0,0.4,86,0.01,,,0.22,WUHU216HW,2013-05-22 03:32:00,
2013-05-21 20:37:00,43.6,39.6,27.26,NNE,23,0.0,0.4,86,0.01,,,0.22,WUHU216HW,2013-05-22 03:37:00,
2013-05-21 20:42:00,43.4,39.4,27.27,NNE,23,0.0,0.2,86,0.01,,,0.22,WUHU216HW,2013-05-22 03:42:00,
2013-05-21 20:47:00,43.2,39.0,27.27,NNE,23,0.0,0.2,85,0.01,,,0.22,WUHU216HW,2013-05-22 03:47:00,
2013-05-21 20:52:00,43.0,38.8,27.27,NNE,23,0.0,0.0,85,0.00,,,0.22,WUHU216HW,2013-05-22 03:52:00,
2013-05-21 20:57:00,43.0,39.1,27.27,NNE,23,0.0,0.0,86,0.00,,,0.22,WUHU216HW,2013-05-22 03:57:00,
2013-05-21 21:01:00,42.8,38.9,27.27,NNE,23,0.0,0.0,86,0.00,,,0.22,WUHU216HW,2013-05-22 04:01:00,
2013-05-21 21:06:00,42.5,38.9,27.27,NNE,23,0.0,0.0,87,0.00,,,0.22,WUHU216HW,2013-05-22 04:06:00,
2013-05-21 21:11:00,42.1,38.2,27.27,NNE,23,0.0,0.0,86,0.00,,,0.22,WUHU216HW,2013-05-22 04:11:00,
2013-05-21 21:16:00,42.1,38.2,27.28,NNE,23,0.0,0.2,86,0.00,,,0.22,WUHU216HW,2013-05-22 04:16:00,
2013-05-21 21:21:00,41.8,37.8,27.28,NNE,23,0.0,0.2,86,0.00,,,0.22,WUHU216HW,2013-05-22 04:21:00,
2013-05-21 21:26:00,41.6,37.6,27.27,NNE,23,0.0,0.2,86,0.00,,,0.22,WUHU216HW,2013-05-22 04:26:00,
2013-05-21 21:31:00,41.4,37.4,27.27,NNE,23,0.0,0.0,86,0.00,,,0.22,WUHU216HW,2013-05-22 04:31:00,
2013-05-21 21:36:00,41.4,37.4,27.28,NNE,23,0.0,0.0,86,0.00,,,0.22,WUHU216HW,2013-05-22 04:36:00,
2013-05-21 21:41:00,41.0,37.1,27.28,NNE,23,0.0,0.0,86,0.00,,,0.22,WUHU216HW,2013-05-22 04:41:00,
2013-05-21 21:46:00,40.9,36.9,27.28,NNE,23,0.0,0.0,86,0.00,,,0.22,WUHU216HW,2013-05-22 04:46:00,
2013-05-21 21:51:00,40.7,36.8,27.28,NNE,23,0.0,0.0,86,0.00,,,0.22,WUHU216HW,2013-05-22 04:51:00,
2013-05-21 21:56:00,40.5,36.6,27.28,NNE,23,0.0,0.0,86,0.00,,,0.22,WUHU216HW,2013-05-22 04:56:00,
2013-05-21 22:01:00,40.3,36.5,27.28,NNE,23,0.0,0.0,86,0.00,,,0.22,WUHU216HW,2013-05-22 05:01:00,
2013-05-21 22:06:00,40.0,36.1,27.29,NNE,23,0.0,0.0,86,0.00,,,0.22,WUHU216HW,2013-05-22 05:06:00,
2013-05-21 22:11:00,40.0,36.1,27.29,NNE,23,0.0,0.0,86,0.00,,,0.22,WUHU216HW,2013-05-22 05:11:00,
2013-05-21 22:16:00,39.8,35.9,27.29,NNE,23,0.0,0.0,86,0.00,,,0.22,WUHU216HW,2013-05-22 05:16:00,
2013-05-21 22:21:00,39.6,35.7,27.29,NNE,23,0.0,0.0,86,0.00,,,0.22,WUHU216HW,2013-05-22 05:21:00,
2013-05-21 22:26:00,39.4,35.6,27.29,NNE,23,0.0,0.0,86,0.00,,,0.22,WUHU216HW,2013-05-22 05:26:00,
2013-05-21 22:31:00,39.2,35.4,27.29,NNE,23,0.0,0.0,86,0.00,,,0.22,WUHU216HW,2013-05-22 05:31:00,
2013-05-21 22:36:00,39.2,35.4,27.29,NNE,23,0.0,0.0,86,0.00,,,0.22,WUHU216HW,2013-05-22 05:36:00,
2013-05-21 22:41:00,39.1,35.2,27.29,NNE,23,0.0,0.0,86,0.00,,,0.22,WUHU216HW,2013-05-22 05:41:00,
2013-05-21 22:46:00,39.1,35.2,27.29,NNE,23,0.0,0.0,86,0.00,,,0.22,WUHU216HW,2013-05-22 05:46:00,
2013-05-21 22:51:00,38.9,35.0,27.29,NNE,23,0.0,0.0,86,0.00,,,0.22,WUHU216HW,2013-05-22 05:51:00,
2013-05-21 22:56:00,38.9,35.0,27.28,NNE,23,0.0,0.0,86,0.00,,,0.22,WUHU216HW,2013-05-22 05:56:00,
2013-05-21 23:01:00,38.7,35.1,27.28,West,270,0.0,0.0,87,0.00,,,0.22,WUHU216HW,2013-05-22 06:01:00,
2013-05-21 23:06:00,38.5,34.9,27.28,West,270,0.0,0.0,87,0.00,,,0.22,WUHU216HW,2013-05-22 06:06:00,
2013-05-21 23:11:00,38.3,34.7,27.28,West,270,0.0,0.0,87,0.00,,,0.22,WUHU216HW,2013-05-22 06:11:00,
2013-05-21 23:16:00,38.2,34.6,27.28,West,270,0.0,0.0,87,0.00,,,0.22,WUHU216HW,2013-05-22 06:16:00,
2013-05-21 23:21:00,38.0,34.4,27.29,West,270,0.0,0.0,87,0.00,,,0.22,WUHU216HW,2013-05-22 06:21:00,
2013-05-21 23:26:00,37.8,34.2,27.28,West,270,0.0,0.0,87,0.00,,,0.22,WUHU216HW,2013-05-22 06:26:00,
2013-05-21 23:31:00,37.8,34.2,27.28,NW,315,0.0,0.0,87,0.00,,,0.22,WUHU216HW,2013-05-22 06:31:00,
2013-05-21 23:36:00,37.6,34.0,27.28,NW,315,0.0,0.0,87,0.00,,,0.22,WUHU216HW,2013-05-22 06:36:00,
2013-05-21 23:41:00,37.6,34.0,27.28,NW,315,0.0,0.0,87,0.00,,,0.22,WUHU216HW,2013-05-22 06:41:00,
2013-05-21 23:46:00,37.4,33.8,27.28,NW,315,0.0,0.0,87,0.00,,,0.22,WUHU216HW,2013-05-22 06:46:00,
2013-05-21 23:51:00,37.3,33.7,27.28,NNW,338,0.0,0.0,87,0.00,,,0.22,WUHU216HW,2013-05-22 06:51:00,
2013-05-21 23:56:00,37.1,33.5,27.28,NNW,338,0.0,0.0,87,0.00,,,0.22,WUHU216HW,2013-05-22 06:56:00,